createdAt,value
2017-10-01T00:00:37.005Z,0
2017-10-01T00:01:49.503Z,0
2017-10-01T00:03:01.997Z,0
2017-10-01T00:04:13.867Z,0
2017-10-01T00:05:26.064Z,0
2017-10-01T00:06:38.551Z,0
2017-10-01T00:07:50.723Z,0
2017-10-01T00:09:03.243Z,0
2017-10-01T00:10:15.123Z,0
2017-10-01T00:11:27.616Z,0
2017-10-01T00:12:39.806Z,0
2017-10-01T00:13:51.959Z,0
2017-10-01T00:15:03.830Z,0
2017-10-01T00:16:16.274Z,0
2017-10-01T00:17:28.771Z,0
2017-10-01T00:18:40.641Z,0
2017-10-01T00:19:52.814Z,0
2017-10-01T00:21:05.008Z,0
2017-10-01T00:22:16.895Z,0
2017-10-01T00:23:29.099Z,0
2017-10-01T00:24:41.293Z,0
2017-10-01T00:25:53.790Z,0
2017-10-01T00:27:06.236Z,0
2017-10-01T00:28:18.107Z,0
2017-10-01T00:29:30.577Z,0
2017-10-01T00:30:43.048Z,0
2017-10-01T00:31:55.536Z,0
2017-10-01T00:33:07.721Z,0
2017-10-01T00:34:20.186Z,0
2017-10-01T00:35:32.381Z,0
2017-10-01T00:36:44.879Z,0
2017-10-01T00:37:57.370Z,0
2017-10-01T00:39:09.568Z,0
2017-10-01T00:40:21.737Z,0
2017-10-01T00:41:33.910Z,0
2017-10-01T00:42:46.378Z,0
2017-10-01T00:43:58.551Z,0
2017-10-01T00:45:11.022Z,0
2017-10-01T00:46:23.216Z,0
2017-10-01T00:47:35.687Z,0
2017-10-01T00:48:47.875Z,0
2017-10-01T00:50:00.353Z,0
2017-10-01T00:51:12.848Z,0
2017-10-01T00:52:25.047Z,0
2017-10-01T00:53:37.215Z,0
2017-10-01T00:54:49.386Z,0
2017-10-01T00:56:01.856Z,0
2017-10-01T00:57:14.027Z,0
2017-10-01T00:58:26.223Z,0
2017-10-01T00:59:38.418Z,0
2017-10-01T01:00:50.613Z,0
2017-10-01T01:02:02.810Z,0
2017-10-01T01:03:14.704Z,0
2017-10-01T01:04:26.900Z,0
2017-10-01T01:05:39.621Z,0
2017-10-01T01:06:52.094Z,0
2017-10-01T01:08:04.262Z,0
2017-10-01T01:09:16.134Z,0
2017-10-01T01:10:28.629Z,0
2017-10-01T01:11:41.100Z,0
2017-10-01T01:12:53.296Z,0
2017-10-01T01:14:05.791Z,0
2017-10-01T01:15:17.687Z,0
2017-10-01T01:16:29.558Z,0
2017-10-01T01:17:42.029Z,0
2017-10-01T01:18:54.224Z,0
2017-10-01T01:20:06.716Z,0
2017-10-01T01:21:19.217Z,0
2017-10-01T01:22:31.385Z,0
2017-10-01T01:23:43.880Z,0
2017-10-01T01:24:56.053Z,0
2017-10-01T01:26:08.222Z,0
2017-10-01T01:27:20.393Z,0
2017-10-01T01:28:32.867Z,0
2017-10-01T01:29:45.360Z,0
2017-10-01T01:30:56.931Z,0
2017-10-01T01:32:09.430Z,0
2017-10-01T01:33:21.599Z,0
2017-10-01T01:34:34.070Z,0
2017-10-01T01:35:46.563Z,0
2017-10-01T01:36:59.059Z,0
2017-10-01T01:38:11.230Z,0
2017-10-01T01:39:23.400Z,0
2017-10-01T01:40:35.588Z,0
2017-10-01T01:41:47.791Z,0
2017-10-01T01:42:59.929Z,0
2017-10-01T01:44:12.108Z,0
2017-10-01T01:45:24.579Z,0
2017-10-01T01:46:37.073Z,0
2017-10-01T01:47:49.245Z,0
2017-10-01T01:49:01.463Z,0
2017-10-01T01:50:13.036Z,0
2017-10-01T01:51:25.508Z,0
2017-10-01T01:52:37.695Z,0
2017-10-01T01:53:50.172Z,0
2017-10-01T01:55:02.362Z,0
2017-10-01T01:56:14.870Z,0
2017-10-01T01:57:27.052Z,0
2017-10-01T01:58:39.522Z,0
2017-10-01T01:59:51.702Z,0
2017-10-01T02:01:04.197Z,0
2017-10-01T02:02:16.368Z,0
2017-10-01T02:03:28.854Z,0
2017-10-01T02:04:41.335Z,0
2017-10-01T02:05:53.847Z,0
2017-10-01T02:07:06.350Z,0
2017-10-01T02:08:18.221Z,0
2017-10-01T02:09:30.693Z,0
2017-10-01T02:10:42.579Z,0
2017-10-01T02:11:55.076Z,0
2017-10-01T02:13:07.246Z,0
2017-10-01T02:14:19.726Z,0
2017-10-01T02:15:32.471Z,0
2017-10-01T02:16:44.666Z,0
2017-10-01T02:17:57.161Z,0
2017-10-01T02:19:09.048Z,0
2017-10-01T02:20:21.226Z,0
2017-10-01T02:21:33.724Z,0
2017-10-01T02:22:46.194Z,0
2017-10-01T02:23:58.365Z,0
2017-10-01T02:25:10.860Z,0
2017-10-01T02:26:23.397Z,0
2017-10-01T02:27:35.577Z,0
2017-10-01T02:28:48.072Z,0
2017-10-01T02:30:00.568Z,0
2017-10-01T02:31:12.762Z,0
2017-10-01T02:32:25.259Z,0
2017-10-01T02:33:37.754Z,0
2017-10-01T02:34:49.325Z,0
2017-10-01T02:36:01.499Z,0
2017-10-01T02:37:13.991Z,0
2017-10-01T02:38:26.162Z,0
2017-10-01T02:39:38.358Z,0
2017-10-01T02:40:50.552Z,0
2017-10-01T02:42:03.024Z,0
2017-10-01T02:43:15.226Z,0
2017-10-01T02:44:27.716Z,0
2017-10-01T02:45:40.186Z,0
2017-10-01T02:46:52.382Z,0
2017-10-01T02:48:04.869Z,0
2017-10-01T02:49:17.366Z,0
2017-10-01T02:50:29.544Z,0
2017-10-01T02:51:42.014Z,0
2017-10-01T02:52:54.192Z,0
2017-10-01T02:54:06.680Z,0
2017-10-01T02:55:18.878Z,0
2017-10-01T02:56:31.346Z,0
2017-10-01T02:57:43.520Z,0
2017-10-01T02:58:56.013Z,0
2017-10-01T03:00:08.483Z,0
2017-10-01T03:01:20.655Z,0
2017-10-01T03:02:33.150Z,0
2017-10-01T03:03:45.350Z,0
2017-10-01T03:04:57.542Z,0
2017-10-01T03:06:10.011Z,0
2017-10-01T03:07:21.583Z,0
2017-10-01T03:08:34.080Z,0
2017-10-01T03:09:46.566Z,0
2017-10-01T03:10:58.445Z,0
2017-10-01T03:12:10.633Z,0
2017-10-01T03:13:23.136Z,0
2017-10-01T03:14:35.607Z,0
2017-10-01T03:15:48.094Z,0
2017-10-01T03:16:59.949Z,0
2017-10-01T03:18:12.444Z,0
2017-10-01T03:19:24.931Z,0
2017-10-01T03:20:37.413Z,0
2017-10-01T03:21:49.280Z,0
2017-10-01T03:23:01.777Z,0
2017-10-01T03:24:13.672Z,0
2017-10-01T03:25:26.162Z,0
2017-10-01T03:26:38.666Z,0
2017-10-01T03:27:51.158Z,0
2017-10-01T03:29:03.330Z,0
2017-10-01T03:30:15.826Z,0
2017-10-01T03:31:28.571Z,0
2017-10-01T03:32:40.740Z,0
2017-10-01T03:33:53.237Z,0
2017-10-01T03:35:05.125Z,0
2017-10-01T03:36:17.296Z,0
2017-10-01T03:37:29.174Z,0
2017-10-01T03:38:41.369Z,0
2017-10-01T03:39:53.864Z,0
2017-10-01T03:41:06.337Z,0
2017-10-01T03:42:18.807Z,0
2017-10-01T03:43:31.294Z,0
2017-10-01T03:44:43.772Z,0
2017-10-01T03:45:56.260Z,0
2017-10-01T03:47:08.738Z,0
2017-10-01T03:48:20.610Z,0
2017-10-01T03:49:33.105Z,0
2017-10-01T03:50:45.000Z,0
2017-10-01T03:51:57.174Z,0
2017-10-01T03:53:09.068Z,0
2017-10-01T03:54:21.262Z,0
2017-10-01T03:55:33.151Z,0
2017-10-01T03:56:45.329Z,0
2017-10-01T03:57:57.801Z,0
2017-10-01T03:59:09.994Z,0
2017-10-01T04:00:22.493Z,0
2017-10-01T04:01:34.986Z,0
2017-10-01T04:02:47.182Z,0
2017-10-01T04:03:59.677Z,0
2017-10-01T04:05:11.875Z,0
2017-10-01T04:06:24.371Z,0
2017-10-01T04:07:35.941Z,0
2017-10-01T04:08:48.430Z,0
2017-10-01T04:10:00.607Z,0
2017-10-01T04:11:12.777Z,0
2017-10-01T04:12:24.947Z,0
2017-10-01T04:13:37.436Z,0
2017-10-01T04:14:49.290Z,0
2017-10-01T04:16:01.785Z,0
2017-10-01T04:17:14.256Z,0
2017-10-01T04:18:26.727Z,0
2017-10-01T04:19:39.214Z,0
2017-10-01T04:20:51.392Z,0
2017-10-01T04:22:03.588Z,0
2017-10-01T04:23:15.758Z,0
2017-10-01T04:24:27.928Z,0
2017-10-01T04:25:40.400Z,0
2017-10-01T04:26:52.275Z,0
2017-10-01T04:28:04.766Z,0
2017-10-01T04:29:17.237Z,0
2017-10-01T04:30:29.112Z,0
2017-10-01T04:31:41.295Z,0
2017-10-01T04:32:53.474Z,0
2017-10-01T04:34:05.970Z,0
2017-10-01T04:35:18.139Z,0
2017-10-01T04:36:30.936Z,0
2017-10-01T04:37:43.407Z,0
2017-10-01T04:38:55.576Z,0
2017-10-01T04:40:07.765Z,0
2017-10-01T04:41:20.244Z,0
2017-10-01T04:42:32.414Z,0
2017-10-01T04:43:44.586Z,0
2017-10-01T04:44:57.083Z,0
2017-10-01T04:46:09.250Z,0
2017-10-01T04:47:21.422Z,0
2017-10-01T04:48:33.918Z,0
2017-10-01T04:49:46.113Z,0
2017-10-01T04:50:58.609Z,0
2017-10-01T04:52:10.804Z,0
2017-10-01T04:53:22.999Z,0
2017-10-01T04:54:35.188Z,0
2017-10-01T04:55:47.366Z,0
2017-10-01T04:56:59.237Z,0
2017-10-01T04:58:11.708Z,0
2017-10-01T04:59:23.903Z,0
2017-10-01T05:00:36.391Z,0
2017-10-01T05:01:48.870Z,0
2017-10-01T05:03:01.064Z,0
2017-10-01T05:04:13.561Z,0
2017-10-01T05:05:25.756Z,0
2017-10-01T05:06:37.927Z,0
2017-10-01T05:07:50.097Z,0
2017-10-01T05:09:02.594Z,0
2017-10-01T05:10:14.464Z,0
2017-10-01T05:11:26.958Z,0
2017-10-01T05:12:39.429Z,0
2017-10-01T05:13:51.000Z,0
2017-10-01T05:15:02.572Z,0
2017-10-01T05:16:14.741Z,5
2017-10-01T05:17:27.213Z,5
2017-10-01T05:18:39.682Z,5
2017-10-01T05:19:51.553Z,5
2017-10-01T05:21:04.041Z,5
2017-10-01T05:22:16.213Z,5
2017-10-01T05:23:28.390Z,5
2017-10-01T05:24:40.886Z,5
2017-10-01T05:25:52.758Z,10
2017-10-01T05:27:05.245Z,10
2017-10-01T05:28:17.424Z,10
2017-10-01T05:29:29.919Z,10
2017-10-01T05:30:41.790Z,10
2017-10-01T05:31:53.962Z,10
2017-10-01T05:33:06.432Z,10
2017-10-01T05:34:18.927Z,10
2017-10-01T05:35:31.398Z,10
2017-10-01T05:36:43.268Z,10
2017-10-01T05:37:55.438Z,10
2017-10-01T05:39:07.935Z,10
2017-10-01T05:40:20.407Z,10
2017-10-01T05:41:32.893Z,10
2017-10-01T05:42:45.077Z,10
2017-10-01T05:43:57.559Z,15
2017-10-01T05:45:10.038Z,15
2017-10-01T05:46:22.535Z,15
2017-10-01T05:47:34.721Z,15
2017-10-01T05:48:46.899Z,15
2017-10-01T05:49:59.069Z,15
2017-10-01T05:51:10.942Z,15
2017-10-01T05:52:23.362Z,15
2017-10-01T05:53:35.850Z,20
2017-10-01T05:54:47.703Z,20
2017-10-01T05:55:59.899Z,20
2017-10-01T05:57:12.087Z,25
2017-10-01T05:58:24.266Z,25
2017-10-01T05:59:36.761Z,25
2017-10-01T06:00:48.935Z,30
2017-10-01T06:02:01.427Z,30
2017-10-01T06:03:13.597Z,35
2017-10-01T06:04:25.470Z,35
2017-10-01T06:05:37.956Z,35
2017-10-01T06:06:49.810Z,35
2017-10-01T06:08:01.981Z,30
2017-10-01T06:09:14.151Z,30
2017-10-01T06:10:26.625Z,30
2017-10-01T06:11:38.793Z,30
2017-10-01T06:12:50.680Z,35
2017-10-01T06:14:02.859Z,35
2017-10-01T06:15:15.355Z,30
2017-10-01T06:16:27.528Z,30
2017-10-01T06:17:40.022Z,30
2017-10-01T06:18:52.491Z,30
2017-10-01T06:20:04.988Z,30
2017-10-01T06:21:17.482Z,30
2017-10-01T06:22:29.958Z,30
2017-10-01T06:23:42.474Z,30
2017-10-01T06:24:54.945Z,30
2017-10-01T06:26:06.516Z,30
2017-10-01T06:27:18.686Z,30
2017-10-01T06:28:31.156Z,35
2017-10-01T06:29:43.626Z,35
2017-10-01T06:30:56.098Z,35
2017-10-01T06:32:08.573Z,35
2017-10-01T06:33:21.040Z,35
2017-10-01T06:34:33.210Z,35
2017-10-01T06:35:45.081Z,35
2017-10-01T06:36:57.551Z,35
2017-10-01T06:38:09.724Z,35
2017-10-01T06:39:22.210Z,40
2017-10-01T06:40:34.405Z,40
2017-10-01T06:41:46.583Z,40
2017-10-01T06:42:58.755Z,40
2017-10-01T06:44:10.017Z,40
2017-10-01T06:45:22.513Z,40
2017-10-01T06:46:34.996Z,35
2017-10-01T06:47:47.187Z,35
2017-10-01T06:48:59.357Z,35
2017-10-01T06:50:11.545Z,35
2017-10-01T06:51:23.098Z,35
2017-10-01T06:52:35.595Z,35
2017-10-01T06:53:47.766Z,35
2017-10-01T06:54:59.939Z,35
2017-10-01T06:56:12.107Z,35
2017-10-01T06:57:24.606Z,40
2017-10-01T06:58:36.773Z,40
2017-10-01T06:59:49.262Z,45
2017-10-01T07:01:01.115Z,45
2017-10-01T07:02:13.610Z,45
2017-10-01T07:03:26.083Z,45
2017-10-01T07:04:37.954Z,50
2017-10-01T07:05:49.522Z,50
2017-10-01T07:07:01.393Z,50
2017-10-01T07:08:13.867Z,55
2017-10-01T07:09:25.734Z,55
2017-10-01T07:10:38.204Z,55
2017-10-01T07:11:50.680Z,55
2017-10-01T07:13:02.872Z,60
2017-10-01T07:14:14.742Z,65
2017-10-01T07:15:27.237Z,75
2017-10-01T07:16:39.733Z,85
2017-10-01T07:17:51.629Z,95
2017-10-01T07:19:04.124Z,100
2017-10-01T07:20:16.594Z,105
2017-10-01T07:21:29.082Z,110
2017-10-01T07:22:41.586Z,110
2017-10-01T07:23:54.080Z,115
2017-10-01T07:25:06.577Z,120
2017-10-01T07:26:18.447Z,125
2017-10-01T07:27:30.636Z,120
2017-10-01T07:28:42.832Z,115
2017-10-01T07:29:55.310Z,110
2017-10-01T07:31:07.806Z,110
2017-10-01T07:32:20.276Z,110
2017-10-01T07:33:32.464Z,105
2017-10-01T07:34:44.018Z,100
2017-10-01T07:35:56.512Z,100
2017-10-01T07:37:08.684Z,100
2017-10-01T07:38:20.879Z,100
2017-10-01T07:39:32.775Z,100
2017-10-01T07:40:45.271Z,100
2017-10-01T07:41:57.767Z,105
2017-10-01T07:43:09.937Z,105
2017-10-01T07:44:21.808Z,105
2017-10-01T07:45:34.296Z,110
2017-10-01T07:46:46.773Z,115
2017-10-01T07:47:59.269Z,115
2017-10-01T07:49:11.765Z,115
2017-10-01T07:50:23.942Z,120
2017-10-01T07:51:35.524Z,120
2017-10-01T07:52:47.406Z,120
2017-10-01T07:53:59.922Z,120
2017-10-01T07:55:11.493Z,115
2017-10-01T07:56:23.365Z,110
2017-10-01T07:57:35.560Z,95
2017-10-01T07:58:47.755Z,90
2017-10-01T08:00:00.251Z,90
2017-10-01T08:01:12.423Z,90
2017-10-01T08:02:24.892Z,100
2017-10-01T08:03:37.388Z,105
2017-10-01T08:04:49.883Z,110
2017-10-01T08:06:02.055Z,110
2017-10-01T08:07:13.928Z,110
2017-10-01T08:08:26.418Z,110
2017-10-01T08:09:38.317Z,105
2017-10-01T08:10:50.487Z,100
2017-10-01T08:12:02.982Z,95
2017-10-01T08:13:15.479Z,105
2017-10-01T08:14:27.950Z,115
2017-10-01T08:15:40.425Z,130
2017-10-01T08:16:52.591Z,140
2017-10-01T08:18:04.787Z,145
2017-10-01T08:19:16.981Z,145
2017-10-01T08:20:29.478Z,145
2017-10-01T08:21:41.666Z,160
2017-10-01T08:22:54.169Z,160
2017-10-01T08:24:06.339Z,160
2017-10-01T08:25:18.836Z,165
2017-10-01T08:26:31.330Z,170
2017-10-01T08:27:43.202Z,165
2017-10-01T08:28:55.397Z,170
2017-10-01T08:30:07.268Z,175
2017-10-01T08:31:19.756Z,170
2017-10-01T08:32:32.234Z,160
2017-10-01T08:33:44.730Z,160
2017-10-01T08:34:57.217Z,160
2017-10-01T08:36:09.721Z,155
2017-10-01T08:37:22.192Z,150
2017-10-01T08:38:34.379Z,135
2017-10-01T08:39:46.558Z,120
2017-10-01T08:40:59.054Z,115
2017-10-01T08:42:11.525Z,120
2017-10-01T08:43:24.020Z,130
2017-10-01T08:44:36.516Z,140
2017-10-01T08:45:48.386Z,150
2017-10-01T08:47:00.256Z,145
2017-10-01T08:48:12.429Z,140
2017-10-01T08:49:24.973Z,140
2017-10-01T08:50:37.144Z,140
2017-10-01T08:51:49.314Z,135
2017-10-01T08:53:01.487Z,135
2017-10-01T08:54:13.656Z,140
2017-10-01T08:55:25.851Z,135
2017-10-01T08:56:37.439Z,125
2017-10-01T08:57:49.918Z,120
2017-10-01T08:59:02.413Z,130
2017-10-01T09:00:14.585Z,145
2017-10-01T09:01:27.054Z,150
2017-10-01T09:02:39.550Z,140
2017-10-01T09:03:51.738Z,140
2017-10-01T09:05:04.242Z,125
2017-10-01T09:06:16.730Z,130
2017-10-01T09:07:28.909Z,130
2017-10-01T09:08:41.079Z,130
2017-10-01T09:09:52.956Z,120
2017-10-01T09:11:04.819Z,95
2017-10-01T09:12:17.316Z,95
2017-10-01T09:13:29.486Z,90
2017-10-01T09:14:41.959Z,90
2017-10-01T09:15:54.126Z,90
2017-10-01T09:17:06.323Z,105
2017-10-01T09:18:18.520Z,120
2017-10-01T09:19:31.008Z,125
2017-10-01T09:20:43.486Z,145
2017-10-01T09:21:55.680Z,135
2017-10-01T09:23:07.905Z,120
2017-10-01T09:24:20.097Z,100
2017-10-01T09:25:32.593Z,95
2017-10-01T09:26:44.767Z,115
2017-10-01T09:27:57.259Z,130
2017-10-01T09:29:09.129Z,150
2017-10-01T09:30:21.627Z,155
2017-10-01T09:31:33.821Z,150
2017-10-01T09:32:46.316Z,135
2017-10-01T09:33:57.286Z,110
2017-10-01T09:35:08.851Z,115
2017-10-01T09:36:21.028Z,135
2017-10-01T09:37:33.499Z,140
2017-10-01T09:38:45.670Z,120
2017-10-01T09:39:58.415Z,150
2017-10-01T09:41:10.612Z,150
2017-10-01T09:42:22.801Z,125
2017-10-01T09:43:34.977Z,130
2017-10-01T09:44:47.474Z,135
2017-10-01T09:45:59.961Z,135
2017-10-01T09:47:12.145Z,160
2017-10-01T09:48:24.653Z,215
2017-10-01T09:49:36.549Z,245
2017-10-01T09:50:48.427Z,255
2017-10-01T09:52:00.597Z,255
2017-10-01T09:53:12.768Z,265
2017-10-01T09:54:24.664Z,270
2017-10-01T09:55:37.160Z,270
2017-10-01T09:56:49.653Z,255
2017-10-01T09:58:01.826Z,255
2017-10-01T09:59:13.697Z,235
2017-10-01T10:00:25.285Z,260
2017-10-01T10:01:37.494Z,250
2017-10-01T10:02:49.076Z,285
2017-10-01T10:04:01.579Z,310
2017-10-01T10:05:13.755Z,340
2017-10-01T10:06:25.637Z,335
2017-10-01T10:07:37.816Z,360
2017-10-01T10:08:49.686Z,355
2017-10-01T10:10:01.258Z,405
2017-10-01T10:11:13.752Z,415
2017-10-01T10:12:26.223Z,430
2017-10-01T10:13:38.720Z,445
2017-10-01T10:14:51.190Z,455
2017-10-01T10:16:03.661Z,425
2017-10-01T10:17:15.830Z,445
2017-10-01T10:18:28.327Z,425
2017-10-01T10:19:40.821Z,435
2017-10-01T10:20:53.294Z,435
2017-10-01T10:22:05.181Z,415
2017-10-01T10:23:17.660Z,380
2017-10-01T10:24:30.147Z,320
2017-10-01T10:25:42.036Z,340
2017-10-01T10:26:54.220Z,395
2017-10-01T10:28:06.392Z,385
2017-10-01T10:29:18.288Z,415
2017-10-01T10:30:30.784Z,445
2017-10-01T10:31:42.979Z,455
2017-10-01T10:32:55.174Z,415
2017-10-01T10:34:07.362Z,410
2017-10-01T10:35:19.246Z,390
2017-10-01T10:36:31.737Z,465
2017-10-01T10:37:43.631Z,460
2017-10-01T10:38:55.520Z,365
2017-10-01T10:40:07.406Z,325
2017-10-01T10:41:19.586Z,280
2017-10-01T10:42:31.765Z,255
2017-10-01T10:43:44.236Z,275
2017-10-01T10:44:56.748Z,270
2017-10-01T10:46:09.251Z,300
2017-10-01T10:47:21.748Z,300
2017-10-01T10:48:33.943Z,280
2017-10-01T10:49:46.438Z,345
2017-10-01T10:50:58.610Z,255
2017-10-01T10:52:11.105Z,260
2017-10-01T10:53:23.276Z,265
2017-10-01T10:54:35.172Z,260
2017-10-01T10:55:47.343Z,240
2017-10-01T10:56:59.513Z,205
2017-10-01T10:58:12.000Z,205
2017-10-01T10:59:24.204Z,215
2017-10-01T11:00:36.099Z,250
2017-10-01T11:01:47.996Z,250
2017-10-01T11:03:00.469Z,230
2017-10-01T11:04:12.962Z,245
2017-10-01T11:05:25.133Z,255
2017-10-01T11:06:37.653Z,245
2017-10-01T11:07:49.841Z,230
2017-10-01T11:09:02.020Z,225
2017-10-01T11:10:14.507Z,255
2017-10-01T11:11:25.478Z,245
2017-10-01T11:12:37.973Z,185
2017-10-01T11:13:50.153Z,165
2017-10-01T11:15:01.724Z,180
2017-10-01T11:16:14.243Z,200
2017-10-01T11:17:26.413Z,235
2017-10-01T11:18:38.284Z,250
2017-10-01T11:19:50.473Z,245
2017-10-01T11:21:02.044Z,270
2017-10-01T11:22:14.525Z,285
2017-10-01T11:23:26.734Z,290
2017-10-01T11:24:38.913Z,275
2017-10-01T11:25:51.109Z,315
2017-10-01T11:27:03.278Z,345
2017-10-01T11:28:15.467Z,380
2017-10-01T11:29:27.646Z,415
2017-10-01T11:30:39.534Z,425
2017-10-01T11:31:51.714Z,460
2017-10-01T11:33:03.283Z,505
2017-10-01T11:34:15.477Z,470
2017-10-01T11:35:27.666Z,415
2017-10-01T11:36:39.870Z,345
2017-10-01T11:37:52.357Z,290
2017-10-01T11:39:04.811Z,230
2017-10-01T11:40:16.999Z,195
2017-10-01T11:41:29.177Z,190
2017-10-01T11:42:41.372Z,170
2017-10-01T11:43:53.885Z,160
2017-10-01T11:45:06.088Z,160
2017-10-01T11:46:18.276Z,150
2017-10-01T11:47:30.456Z,140
2017-10-01T11:48:42.951Z,145
2017-10-01T11:49:55.147Z,145
2017-10-01T11:51:07.317Z,150
2017-10-01T11:52:19.805Z,165
2017-10-01T11:53:31.083Z,165
2017-10-01T11:54:43.254Z,155
2017-10-01T11:55:55.775Z,165
2017-10-01T11:57:07.963Z,150
2017-10-01T11:58:19.541Z,135
2017-10-01T11:59:32.037Z,130
2017-10-01T12:00:44.208Z,125
2017-10-01T12:01:56.733Z,120
2017-10-01T12:03:09.226Z,140
2017-10-01T12:04:21.720Z,170
2017-10-01T12:05:33.593Z,165
2017-10-01T12:06:45.786Z,170
2017-10-01T12:07:58.285Z,170
2017-10-01T12:09:10.780Z,195
2017-10-01T12:10:23.273Z,215
2017-10-01T12:11:35.769Z,240
2017-10-01T12:12:47.964Z,245
2017-10-01T12:13:59.852Z,235
2017-10-01T12:15:11.730Z,205
2017-10-01T12:16:23.901Z,195
2017-10-01T12:17:35.771Z,180
2017-10-01T12:18:47.968Z,180
2017-10-01T12:20:00.156Z,160
2017-10-01T12:21:12.659Z,155
2017-10-01T12:22:25.154Z,180
2017-10-01T12:23:37.350Z,180
2017-10-01T12:24:49.521Z,200
2017-10-01T12:26:02.047Z,220
2017-10-01T12:27:13.915Z,220
2017-10-01T12:28:26.108Z,235
2017-10-01T12:29:38.629Z,285
2017-10-01T12:30:51.124Z,355
2017-10-01T12:32:03.295Z,410
2017-10-01T12:33:14.869Z,400
2017-10-01T12:34:27.060Z,390
2017-10-01T12:35:39.557Z,375
2017-10-01T12:36:51.744Z,340
2017-10-01T12:38:03.922Z,310
2017-10-01T12:39:16.093Z,290
2017-10-01T12:40:28.264Z,285
2017-10-01T12:41:40.760Z,275
2017-10-01T12:42:52.956Z,275
2017-10-01T12:44:05.477Z,255
2017-10-01T12:45:17.048Z,255
2017-10-01T12:46:29.541Z,260
2017-10-01T12:47:41.713Z,255
2017-10-01T12:48:54.217Z,255
2017-10-01T12:50:06.404Z,270
2017-10-01T12:51:18.902Z,285
2017-10-01T12:52:31.071Z,315
2017-10-01T12:53:43.570Z,350
2017-10-01T12:54:55.770Z,350
2017-10-01T12:56:07.333Z,315
2017-10-01T12:57:19.521Z,290
2017-10-01T12:58:31.700Z,270
2017-10-01T12:59:43.870Z,265
2017-10-01T13:00:55.741Z,265
2017-10-01T13:02:07.636Z,275
2017-10-01T13:03:20.132Z,280
2017-10-01T13:04:32.304Z,260
2017-10-01T13:05:44.800Z,245
2017-10-01T13:06:56.385Z,225
2017-10-01T13:08:08.290Z,205
2017-10-01T13:09:20.785Z,185
2017-10-01T13:10:33.281Z,175
2017-10-01T13:11:45.776Z,165
2017-10-01T13:12:58.297Z,160
2017-10-01T13:14:10.785Z,160
2017-10-01T13:15:22.964Z,165
2017-10-01T13:16:35.163Z,170
2017-10-01T13:17:47.347Z,185
2017-10-01T13:18:59.548Z,200
2017-10-01T13:20:11.771Z,215
2017-10-01T13:21:23.967Z,240
2017-10-01T13:22:35.237Z,290
2017-10-01T13:23:46.808Z,330
2017-10-01T13:24:58.703Z,360
2017-10-01T13:26:10.600Z,365
2017-10-01T13:27:22.470Z,370
2017-10-01T13:28:34.965Z,370
2017-10-01T13:29:47.140Z,365
2017-10-01T13:30:59.306Z,370
2017-10-01T13:32:11.203Z,370
2017-10-01T13:33:23.698Z,335
2017-10-01T13:34:35.874Z,310
2017-10-01T13:35:47.764Z,290
2017-10-01T13:37:00.261Z,275
2017-10-01T13:38:12.456Z,280
2017-10-01T13:39:24.951Z,275
2017-10-01T13:40:37.448Z,220
2017-10-01T13:41:49.623Z,180
2017-10-01T13:43:02.109Z,215
2017-10-01T13:44:13.984Z,295
2017-10-01T13:45:26.480Z,310
2017-10-01T13:46:38.968Z,260
2017-10-01T13:47:50.221Z,255
2017-10-01T13:49:02.421Z,330
2017-10-01T13:50:14.287Z,370
2017-10-01T13:51:26.775Z,365
2017-10-01T13:52:39.254Z,345
2017-10-01T13:53:51.160Z,320
2017-10-01T13:55:03.673Z,285
2017-10-01T13:56:16.166Z,270
2017-10-01T13:57:28.353Z,280
2017-10-01T13:58:40.832Z,290
2017-10-01T13:59:53.252Z,290
2017-10-01T14:01:05.449Z,315
2017-10-01T14:02:17.943Z,350
2017-10-01T14:03:30.440Z,375
2017-10-01T14:04:42.627Z,380
2017-10-01T14:05:54.806Z,390
2017-10-01T14:07:07.002Z,400
2017-10-01T14:08:18.897Z,400
2017-10-01T14:09:30.469Z,385
2017-10-01T14:10:42.339Z,375
2017-10-01T14:11:54.238Z,355
2017-10-01T14:13:06.405Z,340
2017-10-01T14:14:18.601Z,330
2017-10-01T14:15:31.098Z,315
2017-10-01T14:16:43.292Z,295
2017-10-01T14:17:55.180Z,285
2017-10-01T14:19:07.682Z,270
2017-10-01T14:20:20.171Z,250
2017-10-01T14:21:32.050Z,225
2017-10-01T14:22:44.520Z,230
2017-10-01T14:23:57.058Z,240
2017-10-01T14:25:09.554Z,250
2017-10-01T14:26:21.732Z,250
2017-10-01T14:27:33.603Z,250
2017-10-01T14:28:45.473Z,260
2017-10-01T14:29:57.964Z,285
2017-10-01T14:31:10.468Z,305
2017-10-01T14:32:22.952Z,310
2017-10-01T14:33:35.148Z,305
2017-10-01T14:34:46.744Z,305
2017-10-01T14:35:58.947Z,295
2017-10-01T14:37:10.818Z,280
2017-10-01T14:38:22.721Z,250
2017-10-01T14:39:35.210Z,215
2017-10-01T14:40:47.436Z,210
2017-10-01T14:41:59.600Z,195
2017-10-01T14:43:12.088Z,165
2017-10-01T14:44:24.591Z,135
2017-10-01T14:45:37.088Z,105
2017-10-01T14:46:49.589Z,90
2017-10-01T14:48:01.779Z,75
2017-10-01T14:49:14.274Z,65
2017-10-01T14:50:26.444Z,60
2017-10-01T14:51:38.641Z,55
2017-10-01T14:52:51.130Z,55
2017-10-01T14:54:03.606Z,50
2017-10-01T14:55:15.480Z,50
2017-10-01T14:56:27.974Z,55
2017-10-01T14:57:39.847Z,65
2017-10-01T14:58:52.341Z,90
2017-10-01T15:00:04.861Z,125
2017-10-01T15:01:17.357Z,165
2017-10-01T15:02:29.852Z,205
2017-10-01T15:03:42.040Z,240
2017-10-01T15:04:54.219Z,255
2017-10-01T15:06:06.414Z,255
2017-10-01T15:07:18.283Z,235
2017-10-01T15:08:30.455Z,215
2017-10-01T15:09:42.351Z,195
2017-10-01T15:10:54.838Z,180
2017-10-01T15:12:05.818Z,165
2017-10-01T15:13:17.687Z,150
2017-10-01T15:14:30.188Z,130
2017-10-01T15:15:42.079Z,110
2017-10-01T15:16:54.274Z,90
2017-10-01T15:18:06.769Z,70
2017-10-01T15:19:18.967Z,50
2017-10-01T15:20:31.162Z,35
2017-10-01T15:21:43.033Z,30
2017-10-01T15:22:55.528Z,25
2017-10-01T15:24:07.724Z,25
2017-10-01T15:25:19.920Z,25
2017-10-01T15:26:31.808Z,25
2017-10-01T15:27:44.004Z,25
2017-10-01T15:28:56.181Z,25
2017-10-01T15:30:08.677Z,30
2017-10-01T15:31:21.175Z,40
2017-10-01T15:32:33.368Z,50
2017-10-01T15:33:45.240Z,55
2017-10-01T15:34:57.410Z,55
2017-10-01T15:36:09.904Z,55
2017-10-01T15:37:22.100Z,55
2017-10-01T15:38:34.296Z,50
2017-10-01T15:39:45.885Z,45
2017-10-01T15:40:58.064Z,45
2017-10-01T15:42:10.559Z,45
2017-10-01T15:43:23.082Z,50
2017-10-01T15:44:34.950Z,55
2017-10-01T15:45:47.146Z,60
2017-10-01T15:46:59.620Z,65
2017-10-01T15:48:11.812Z,65
2017-10-01T15:49:24.306Z,75
2017-10-01T15:50:36.779Z,85
2017-10-01T15:51:48.349Z,95
2017-10-01T15:52:59.619Z,100
2017-10-01T15:54:11.489Z,100
2017-10-01T15:55:23.686Z,100
2017-10-01T15:56:35.874Z,100
2017-10-01T15:57:48.051Z,95
2017-10-01T15:59:00.798Z,75
2017-10-01T16:00:12.986Z,65
2017-10-01T16:01:25.165Z,50
2017-10-01T16:02:37.364Z,45
2017-10-01T16:03:49.555Z,40
2017-10-01T16:05:01.727Z,35
2017-10-01T16:06:13.897Z,30
2017-10-01T16:07:26.391Z,25
2017-10-01T16:08:38.888Z,25
2017-10-01T16:09:51.061Z,20
2017-10-01T16:11:03.256Z,20
2017-10-01T16:12:15.125Z,20
2017-10-01T16:13:27.596Z,15
2017-10-01T16:14:39.784Z,20
2017-10-01T16:15:51.362Z,20
2017-10-01T16:17:03.251Z,20
2017-10-01T16:18:15.128Z,20
2017-10-01T16:19:27.598Z,20
2017-10-01T16:20:40.362Z,25
2017-10-01T16:21:52.265Z,25
2017-10-01T16:23:04.438Z,25
2017-10-01T16:24:16.931Z,25
2017-10-01T16:25:29.428Z,25
2017-10-01T16:26:41.622Z,25
2017-10-01T16:27:54.093Z,20
2017-10-01T16:29:06.564Z,20
2017-10-01T16:30:18.437Z,15
2017-10-01T16:31:30.332Z,15
2017-10-01T16:32:41.901Z,10
2017-10-01T16:33:53.772Z,10
2017-10-01T16:35:06.267Z,10
2017-10-01T16:36:18.764Z,10
2017-10-01T16:37:30.651Z,10
2017-10-01T16:38:42.821Z,5
2017-10-01T16:39:54.677Z,5
2017-10-01T16:41:06.546Z,5
2017-10-01T16:42:18.717Z,5
2017-10-01T16:43:31.204Z,5
2017-10-01T16:44:43.075Z,0
2017-10-01T16:45:55.245Z,0
2017-10-01T16:47:07.429Z,0
2017-10-01T16:48:19.622Z,0
2017-10-01T16:49:31.532Z,0
2017-10-01T16:50:43.404Z,0
2017-10-01T16:51:55.606Z,0
2017-10-01T16:53:07.795Z,0
2017-10-01T16:54:20.001Z,0
2017-10-01T16:55:32.494Z,0
2017-10-01T16:56:44.364Z,0
2017-10-01T16:57:56.534Z,0
2017-10-01T16:59:09.030Z,0
2017-10-01T17:00:20.943Z,0
2017-10-01T17:01:33.147Z,0
2017-10-01T17:02:45.627Z,0
2017-10-01T17:03:58.113Z,0
2017-10-01T17:05:10.310Z,0
2017-10-01T17:06:22.809Z,0